Terminal Aerodrome Forecast
Issued by NWS Sterling, VA

Current Version | Previous Version | Graphics & Text | Print | Product List | Glossary On
Versions: 1 2 3 4 5 6 7 8 9 10 11 12 13 14 15 16 17 18 19 20 21 22 23
000
FTUS41 KLWX 131600 AAC
TAFIAD
TAF AMD
KIAD 131635Z 1317/1418 31004KT 3SM -RA SCT009 OVC020
     FM131800 VRB03KT 6SM BR OVC015
     FM131900 32004KT P6SM OVC025
     FM132100 32005KT P6SM OVC050
     FM140000 33004KT P6SM SCT250
     FM140300 33008KT P6SM FEW250=

USA.gov is the U.S. government's official web portal to all federal, state and local government web resources and services.